createdAt,value
2018-05-27T00:01:15.039Z,21.51
2018-05-27T00:02:15.603Z,21.51
2018-05-27T00:03:16.168Z,21.47
2018-05-27T00:04:16.734Z,21.42
2018-05-27T00:05:17.303Z,21.42
2018-05-27T00:06:17.862Z,21.37
2018-05-27T00:07:18.402Z,21.40
2018-05-27T00:08:18.950Z,21.35
2018-05-27T00:09:19.506Z,21.39
2018-05-27T00:10:20.061Z,21.40
2018-05-27T00:11:20.610Z,21.28
2018-05-27T00:12:21.170Z,21.27
2018-05-27T00:13:21.720Z,21.33
2018-05-27T00:14:22.272Z,21.27
2018-05-27T00:15:22.821Z,21.28
2018-05-27T00:16:23.370Z,21.21
2018-05-27T00:17:23.924Z,21.21
2018-05-27T00:18:24.477Z,21.12
2018-05-27T00:19:25.031Z,21.18
2018-05-27T00:20:25.580Z,21.17
2018-05-27T00:21:26.132Z,21.15
2018-05-27T00:22:26.688Z,21.18
2018-05-27T00:23:27.238Z,21.17
2018-05-27T00:24:27.789Z,21.10
2018-05-27T00:25:28.343Z,21.02
2018-05-27T00:26:28.894Z,20.91
2018-05-27T00:27:29.454Z,20.95
2018-05-27T00:28:30.003Z,20.98
2018-05-27T00:29:30.556Z,20.96
2018-05-27T00:30:31.112Z,20.91
2018-05-27T00:31:31.661Z,20.98
2018-05-27T00:32:32.216Z,20.99
2018-05-27T00:33:32.769Z,20.95
2018-05-27T00:34:33.320Z,20.91
2018-05-27T00:35:33.874Z,20.84
2018-05-27T00:36:34.428Z,20.96
2018-05-27T00:37:34.979Z,20.87
2018-05-27T00:38:35.536Z,20.82
2018-05-27T00:39:36.083Z,20.81
2018-05-27T00:40:36.639Z,20.84
2018-05-27T00:41:37.188Z,20.78
2018-05-27T00:42:37.743Z,20.80
2018-05-27T00:43:38.292Z,20.80
2018-05-27T00:44:38.843Z,20.81
2018-05-27T00:45:39.396Z,20.69
2018-05-27T00:46:39.954Z,20.70
2018-05-27T00:47:40.505Z,20.72
2018-05-27T00:48:41.060Z,20.72
2018-05-27T00:49:41.614Z,20.59
2018-05-27T00:50:42.165Z,20.66
2018-05-27T00:51:42.716Z,20.54
2018-05-27T00:52:43.275Z,20.50
2018-05-27T00:53:43.817Z,20.50
2018-05-27T00:54:44.376Z,20.42
2018-05-27T00:55:44.927Z,20.34
2018-05-27T00:56:45.482Z,20.36
2018-05-27T00:57:46.037Z,20.42
2018-05-27T00:58:46.595Z,20.36
2018-05-27T00:59:47.140Z,20.36
2018-05-27T01:00:47.693Z,20.32
2018-05-27T01:01:48.252Z,20.31
2018-05-27T01:02:48.792Z,20.35
2018-05-27T01:03:49.344Z,20.28
2018-05-27T01:04:49.901Z,20.28
2018-05-27T01:05:50.452Z,20.19
2018-05-27T01:06:51.010Z,20.24
2018-05-27T01:07:51.563Z,20.34
2018-05-27T01:08:52.114Z,20.25
2018-05-27T01:09:52.670Z,20.31
2018-05-27T01:10:53.223Z,20.25
2018-05-27T01:11:53.775Z,20.22
2018-05-27T01:12:54.323Z,20.22
2018-05-27T01:13:54.875Z,20.09
2018-05-27T01:14:55.430Z,20.02
2018-05-27T01:15:55.984Z,19.98
2018-05-27T01:16:56.536Z,19.99
2018-05-27T01:17:57.092Z,20.06
2018-05-27T01:18:57.639Z,20.03
2018-05-27T01:19:58.188Z,20.04
2018-05-27T01:20:58.743Z,19.99
2018-05-27T01:21:59.296Z,20.03
2018-05-27T01:22:59.849Z,19.98
2018-05-27T01:24:00.398Z,19.98
2018-05-27T01:25:00.954Z,19.99
2018-05-27T01:26:01.507Z,19.99
2018-05-27T01:27:02.059Z,19.98
2018-05-27T01:28:02.607Z,19.91
2018-05-27T01:29:03.166Z,19.98
2018-05-27T01:30:03.715Z,19.87
2018-05-27T01:31:04.262Z,19.89
2018-05-27T01:32:04.808Z,19.87
2018-05-27T01:33:05.360Z,19.81
2018-05-27T01:34:05.912Z,19.80
2018-05-27T01:35:06.479Z,19.81
2018-05-27T01:36:07.024Z,19.76
2018-05-27T01:37:07.576Z,19.73
2018-05-27T01:38:08.127Z,19.73
2018-05-27T01:39:08.678Z,19.64
2018-05-27T01:40:09.236Z,19.67
2018-05-27T01:41:09.783Z,19.77
2018-05-27T01:42:10.337Z,19.66
2018-05-27T01:43:10.881Z,19.67
2018-05-27T01:44:11.434Z,19.69
2018-05-27T01:45:11.988Z,19.71
2018-05-27T01:46:12.542Z,19.62
2018-05-27T01:47:13.094Z,19.58
2018-05-27T01:48:13.640Z,19.59
2018-05-27T01:49:14.193Z,19.59
2018-05-27T01:50:14.740Z,19.61
2018-05-27T01:51:15.293Z,19.64
2018-05-27T01:52:15.841Z,19.59
2018-05-27T01:53:16.398Z,19.61
2018-05-27T01:54:16.951Z,19.64
2018-05-27T01:55:17.512Z,19.61
2018-05-27T01:56:18.129Z,19.70
2018-05-27T01:57:18.672Z,19.70
2018-05-27T01:58:19.242Z,19.69
2018-05-27T01:59:19.768Z,19.74
2018-05-27T02:00:20.325Z,19.77
2018-05-27T02:01:20.874Z,19.74
2018-05-27T02:02:21.431Z,19.70
2018-05-27T02:03:21.981Z,19.70
2018-05-27T02:04:22.535Z,19.76
2018-05-27T02:05:23.087Z,19.69
2018-05-27T02:06:23.634Z,19.73
2018-05-27T02:07:24.185Z,19.74
2018-05-27T02:08:24.735Z,19.76
2018-05-27T02:09:25.319Z,19.77
2018-05-27T02:10:25.837Z,19.79
2018-05-27T02:11:26.382Z,19.77
2018-05-27T02:12:26.945Z,19.71
2018-05-27T02:13:27.488Z,19.71
2018-05-27T02:14:28.042Z,19.76
2018-05-27T02:15:28.597Z,19.77
2018-05-27T02:16:29.150Z,19.70
2018-05-27T02:17:29.715Z,19.74
2018-05-27T02:18:30.268Z,19.76
2018-05-27T02:19:30.829Z,19.77
2018-05-27T02:20:31.380Z,19.76
2018-05-27T02:21:31.929Z,19.73
2018-05-27T02:22:32.482Z,19.69
2018-05-27T02:23:33.037Z,19.73
2018-05-27T02:24:33.588Z,19.69
2018-05-27T02:25:34.140Z,19.69
2018-05-27T02:26:34.690Z,19.66
2018-05-27T02:27:35.241Z,19.62
2018-05-27T02:28:35.795Z,19.69
2018-05-27T02:29:36.347Z,19.74
2018-05-27T02:30:36.899Z,19.71
2018-05-27T02:31:37.453Z,19.73
2018-05-27T02:32:38.000Z,19.77
2018-05-27T02:33:38.564Z,19.73
2018-05-27T02:34:39.095Z,19.74
2018-05-27T02:35:39.641Z,19.58
2018-05-27T02:36:40.194Z,19.67
2018-05-27T02:37:40.750Z,19.64
2018-05-27T02:38:41.299Z,19.67
2018-05-27T02:39:41.854Z,19.61
2018-05-27T02:40:42.413Z,19.67
2018-05-27T02:41:42.959Z,19.61
2018-05-27T02:42:43.506Z,19.58
2018-05-27T02:43:44.058Z,19.59
2018-05-27T02:44:44.609Z,19.56
2018-05-27T02:45:45.159Z,19.52
2018-05-27T02:46:45.709Z,19.51
2018-05-27T02:47:46.265Z,19.51
2018-05-27T02:48:46.816Z,19.49
2018-05-27T02:49:47.372Z,19.49
2018-05-27T02:50:47.937Z,19.47
2018-05-27T02:51:48.475Z,19.47
2018-05-27T02:52:49.019Z,19.52
2018-05-27T02:53:49.570Z,19.44
2018-05-27T02:54:50.124Z,19.49
2018-05-27T02:55:50.675Z,19.48
2018-05-27T02:56:51.225Z,19.51
2018-05-27T02:57:51.775Z,19.49
2018-05-27T02:58:52.327Z,19.48
2018-05-27T02:59:52.885Z,19.48
2018-05-27T03:00:53.440Z,19.49
2018-05-27T03:01:53.992Z,19.49
2018-05-27T03:02:54.547Z,19.49
2018-05-27T03:03:55.092Z,19.47
2018-05-27T03:04:55.648Z,19.41
2018-05-27T03:05:56.199Z,19.47
2018-05-27T03:06:56.745Z,19.43
2018-05-27T03:07:57.306Z,19.48
2018-05-27T03:08:57.854Z,19.40
2018-05-27T03:09:58.415Z,19.30
2018-05-27T03:10:58.985Z,19.29
2018-05-27T03:11:59.512Z,19.27
2018-05-27T03:13:00.059Z,19.34
2018-05-27T03:14:00.607Z,19.31
2018-05-27T03:15:01.161Z,19.34
2018-05-27T03:16:01.721Z,19.31
2018-05-27T03:17:02.272Z,19.19
2018-05-27T03:18:02.827Z,19.15
2018-05-27T03:19:03.380Z,19.25
2018-05-27T03:20:03.933Z,19.25
2018-05-27T03:21:04.482Z,19.15
2018-05-27T03:22:05.033Z,19.15
2018-05-27T03:23:05.581Z,19.18
2018-05-27T03:24:06.137Z,19.18
2018-05-27T03:25:06.693Z,19.12
2018-05-27T03:26:07.245Z,19.11
2018-05-27T03:27:07.805Z,19.11
2018-05-27T03:28:08.349Z,19.07
2018-05-27T03:29:08.902Z,19.15
2018-05-27T03:30:09.458Z,19.14
2018-05-27T03:31:10.010Z,19.22
2018-05-27T03:32:10.562Z,19.25
2018-05-27T03:33:11.112Z,19.22
2018-05-27T03:34:11.679Z,19.22
2018-05-27T03:35:12.222Z,19.12
2018-05-27T03:36:12.774Z,19.07
2018-05-27T03:37:13.330Z,19.06
2018-05-27T03:38:13.883Z,19.00
2018-05-27T03:39:14.438Z,18.93
2018-05-27T03:40:14.986Z,18.84
2018-05-27T03:41:15.536Z,18.85
2018-05-27T03:42:16.094Z,18.77
2018-05-27T03:43:16.641Z,18.80
2018-05-27T03:44:17.191Z,18.78
2018-05-27T03:45:17.745Z,18.80
2018-05-27T03:46:18.305Z,18.81
2018-05-27T03:47:18.865Z,18.81
2018-05-27T03:48:19.418Z,18.89
2018-05-27T03:49:19.975Z,18.92
2018-05-27T03:50:20.534Z,19.02
2018-05-27T03:51:21.090Z,19.00
2018-05-27T03:52:21.644Z,19.00
2018-05-27T03:53:22.195Z,19.00
2018-05-27T03:54:22.757Z,19.09
2018-05-27T03:55:23.306Z,19.18
2018-05-27T03:56:23.862Z,19.12
2018-05-27T03:57:24.416Z,19.31
2018-05-27T03:58:24.976Z,19.25
2018-05-27T03:59:25.528Z,19.29
2018-05-27T04:00:26.085Z,19.29
2018-05-27T04:01:26.640Z,19.33
2018-05-27T04:02:27.198Z,19.37
2018-05-27T04:03:27.753Z,19.51
2018-05-27T04:04:28.304Z,19.51
2018-05-27T04:05:28.855Z,19.54
2018-05-27T04:06:29.410Z,19.58
2018-05-27T04:07:29.975Z,19.64
2018-05-27T04:08:30.526Z,19.62
2018-05-27T04:09:31.079Z,19.66
2018-05-27T04:10:31.632Z,19.70
2018-05-27T04:11:32.186Z,19.76
2018-05-27T04:12:32.740Z,19.71
2018-05-27T04:13:33.294Z,19.77
2018-05-27T04:14:33.856Z,19.81
2018-05-27T04:15:34.415Z,19.85
2018-05-27T04:16:34.971Z,19.96
2018-05-27T04:17:35.530Z,20.04
2018-05-27T04:18:36.091Z,20.03
2018-05-27T04:19:36.647Z,20.17
2018-05-27T04:20:37.210Z,20.14
2018-05-27T04:21:37.767Z,20.10
2018-05-27T04:22:38.326Z,20.10
2018-05-27T04:23:38.883Z,20.21
2018-05-27T04:24:39.441Z,20.17
2018-05-27T04:25:39.996Z,20.10
2018-05-27T04:26:40.553Z,20.22
2018-05-27T04:27:41.113Z,20.26
2018-05-27T04:28:41.702Z,20.26
2018-05-27T04:29:42.227Z,20.28
2018-05-27T04:30:42.788Z,20.24
2018-05-27T04:31:43.338Z,20.28
2018-05-27T04:32:43.894Z,20.17
2018-05-27T04:33:44.457Z,20.35
2018-05-27T04:34:45.019Z,20.35
2018-05-27T04:35:45.591Z,20.40
2018-05-27T04:36:46.129Z,20.36
2018-05-27T04:37:46.689Z,20.43
2018-05-27T04:38:47.251Z,20.52
2018-05-27T04:39:47.806Z,20.55
2018-05-27T04:40:48.358Z,20.52
2018-05-27T04:41:48.921Z,20.57
2018-05-27T04:42:49.482Z,20.59
2018-05-27T04:43:50.041Z,20.63
2018-05-27T04:44:50.600Z,20.78
2018-05-27T04:45:51.158Z,20.84
2018-05-27T04:46:51.716Z,20.96
2018-05-27T04:47:52.276Z,21.09
2018-05-27T04:48:52.836Z,21.22
2018-05-27T04:49:53.392Z,21.22
2018-05-27T04:50:53.953Z,21.28
2018-05-27T04:51:54.506Z,21.40
2018-05-27T04:52:55.075Z,21.43
2018-05-27T04:53:55.629Z,21.51
2018-05-27T04:54:56.180Z,21.37
2018-05-27T04:55:56.743Z,21.47
2018-05-27T04:56:57.301Z,21.49
2018-05-27T04:57:57.864Z,21.61
2018-05-27T04:58:58.457Z,21.55
2018-05-27T04:59:58.981Z,21.65
2018-05-27T05:00:59.553Z,21.65
2018-05-27T05:02:00.111Z,21.80
2018-05-27T05:03:00.681Z,22.05
2018-05-27T05:04:01.240Z,22.21
2018-05-27T05:05:01.802Z,22.29
2018-05-27T05:06:02.361Z,22.35
2018-05-27T05:07:02.922Z,22.39
2018-05-27T05:08:03.485Z,22.35
2018-05-27T05:09:04.050Z,22.24
2018-05-27T05:10:04.620Z,22.40
2018-05-27T05:11:05.184Z,22.44
2018-05-27T05:12:05.765Z,22.46
2018-05-27T05:13:06.344Z,22.66
2018-05-27T05:14:07.077Z,22.76
2018-05-27T05:15:07.612Z,22.83
2018-05-27T05:16:08.173Z,22.83
2018-05-27T05:17:08.749Z,22.88
2018-05-27T05:18:09.302Z,22.95
2018-05-27T05:19:09.880Z,22.93
2018-05-27T05:20:10.442Z,23.00
2018-05-27T05:21:11.003Z,23.10
2018-05-27T05:22:11.565Z,23.10
2018-05-27T05:23:12.125Z,22.95
2018-05-27T05:24:12.682Z,23.08
2018-05-27T05:25:13.248Z,23.06
2018-05-27T05:26:13.808Z,23.10
2018-05-27T05:27:14.370Z,23.09
2018-05-27T05:28:14.947Z,23.15
2018-05-27T05:29:15.517Z,22.93
2018-05-27T05:30:16.067Z,22.83
2018-05-27T05:31:16.636Z,22.70
2018-05-27T05:32:17.194Z,22.63
2018-05-27T05:33:17.760Z,22.48
2018-05-27T05:34:18.326Z,22.33
2018-05-27T05:35:18.888Z,22.28
2018-05-27T05:36:19.492Z,22.24
2018-05-27T05:37:20.013Z,22.20
2018-05-27T05:38:20.575Z,22.13
2018-05-27T05:39:21.140Z,22.18
2018-05-27T05:40:21.696Z,22.16
2018-05-27T05:41:22.259Z,22.14
2018-05-27T05:42:22.816Z,22.03
2018-05-27T05:43:23.376Z,22.23
2018-05-27T05:44:23.929Z,22.23
2018-05-27T05:45:24.491Z,22.28
2018-05-27T05:46:25.050Z,22.20
2018-05-27T05:47:25.614Z,22.21
2018-05-27T05:48:26.174Z,22.26
2018-05-27T05:49:26.727Z,22.17
2018-05-27T05:50:27.284Z,22.21
2018-05-27T05:51:27.846Z,22.13
2018-05-27T05:52:28.409Z,22.14
2018-05-27T05:53:28.973Z,22.18
2018-05-27T05:54:29.641Z,22.20
2018-05-27T05:55:30.204Z,22.16
2018-05-27T05:56:30.763Z,22.23
2018-05-27T05:57:31.357Z,22.18
2018-05-27T05:58:31.886Z,22.24
2018-05-27T05:59:32.446Z,22.32
2018-05-27T06:00:33.014Z,22.23
2018-05-27T06:01:33.572Z,22.33
2018-05-27T06:02:34.132Z,22.51
2018-05-27T06:03:34.700Z,22.51
2018-05-27T06:04:35.256Z,22.70
2018-05-27T06:05:35.818Z,22.62
2018-05-27T06:06:36.387Z,22.66
2018-05-27T06:07:36.953Z,22.72
2018-05-27T06:08:37.516Z,22.70
2018-05-27T06:09:38.081Z,22.66
2018-05-27T06:10:38.638Z,22.57
2018-05-27T06:11:39.203Z,22.53
2018-05-27T06:12:39.766Z,22.60
2018-05-27T06:13:40.324Z,22.72
2018-05-27T06:14:40.883Z,22.66
2018-05-27T06:15:41.446Z,23.00
2018-05-27T06:16:42.016Z,23.12
2018-05-27T06:17:42.570Z,23.31
2018-05-27T06:18:43.124Z,23.51
2018-05-27T06:19:43.728Z,23.58
2018-05-27T06:20:44.255Z,23.80
2018-05-27T06:21:44.820Z,24.14
2018-05-27T06:22:45.388Z,24.38
2018-05-27T06:23:45.956Z,24.64
2018-05-27T06:24:46.532Z,24.99
2018-05-27T06:25:47.173Z,25.28
2018-05-27T06:26:47.665Z,25.41
2018-05-27T06:27:48.232Z,25.61
2018-05-27T06:28:48.801Z,25.88
2018-05-27T06:29:49.380Z,26.00
2018-05-27T06:30:49.945Z,26.24
2018-05-27T06:31:50.516Z,26.44
2018-05-27T06:32:51.081Z,26.56
2018-05-27T06:33:51.651Z,26.87
2018-05-27T06:34:52.217Z,27.00
2018-05-27T06:35:52.792Z,27.32
2018-05-27T06:36:53.356Z,27.21
2018-05-27T06:37:53.930Z,27.30
2018-05-27T06:38:54.494Z,27.48
2018-05-27T06:39:55.068Z,27.61
2018-05-27T06:40:55.630Z,27.73
2018-05-27T06:41:56.204Z,28.08
2018-05-27T06:42:56.787Z,27.95
2018-05-27T06:43:57.353Z,27.90
2018-05-27T06:44:57.927Z,28.00
2018-05-27T06:45:58.497Z,28.15
2018-05-27T06:46:59.074Z,28.25
2018-05-27T06:47:59.644Z,28.04
2018-05-27T06:49:00.213Z,27.99
2018-05-27T06:50:00.777Z,28.30
2018-05-27T06:51:01.355Z,28.67
2018-05-27T06:52:01.928Z,28.82
2018-05-27T06:53:02.498Z,28.63
2018-05-27T06:54:03.077Z,28.66
2018-05-27T06:55:03.643Z,29.07
2018-05-27T06:56:04.216Z,28.92
2018-05-27T06:57:04.789Z,28.65
2018-05-27T06:58:05.360Z,28.73
2018-05-27T06:59:05.932Z,28.84
2018-05-27T07:00:06.502Z,28.67
2018-05-27T07:01:07.077Z,28.67
2018-05-27T07:02:07.649Z,28.40
2018-05-27T07:03:08.223Z,28.51
2018-05-27T07:04:08.796Z,28.63
2018-05-27T07:05:09.375Z,28.85
2018-05-27T07:06:09.949Z,29.00
2018-05-27T07:07:10.522Z,28.67
2018-05-27T07:08:11.091Z,28.94
2018-05-27T07:09:11.661Z,29.26
2018-05-27T07:10:12.251Z,29.32
2018-05-27T07:11:12.812Z,29.48
2018-05-27T07:12:13.386Z,29.52
2018-05-27T07:13:13.958Z,29.20
2018-05-27T07:14:14.531Z,28.81
2018-05-27T07:15:15.104Z,28.75
2018-05-27T07:16:15.675Z,28.42
2018-05-27T07:17:16.246Z,28.29
2018-05-27T07:18:16.822Z,28.23
2018-05-27T07:19:17.392Z,28.32
2018-05-27T07:20:17.962Z,28.20
2018-05-27T07:21:18.531Z,27.99
2018-05-27T07:22:19.101Z,27.67
2018-05-27T07:23:19.671Z,27.47
2018-05-27T07:24:20.243Z,27.70
2018-05-27T07:25:20.810Z,27.98
2018-05-27T07:26:21.380Z,28.20
2018-05-27T07:27:21.952Z,28.62
2018-05-27T07:28:22.524Z,28.84
2018-05-27T07:29:23.091Z,28.92
2018-05-27T07:30:23.662Z,28.81
2018-05-27T07:31:24.279Z,28.97
2018-05-27T07:32:24.807Z,29.23
2018-05-27T07:33:25.388Z,29.30
2018-05-27T07:34:25.995Z,29.53
2018-05-27T07:35:26.519Z,29.32
2018-05-27T07:36:27.092Z,29.63
2018-05-27T07:37:27.666Z,29.85
2018-05-27T07:38:28.240Z,30.01
2018-05-27T07:39:28.812Z,30.31
2018-05-27T07:40:29.388Z,30.57
2018-05-27T07:41:29.963Z,30.72
2018-05-27T07:42:30.539Z,30.73
2018-05-27T07:43:31.117Z,30.83
2018-05-27T07:44:31.687Z,30.93
2018-05-27T07:45:32.256Z,31.06
2018-05-27T07:46:32.829Z,30.71
2018-05-27T07:47:33.405Z,30.87
2018-05-27T07:48:33.981Z,30.71
2018-05-27T07:49:34.555Z,30.56
2018-05-27T07:50:35.131Z,30.69
2018-05-27T07:51:35.699Z,30.59
2018-05-27T07:52:36.292Z,30.60
2018-05-27T07:53:36.838Z,30.73
2018-05-27T07:54:37.419Z,30.72
2018-05-27T07:55:37.991Z,30.69
2018-05-27T07:56:38.567Z,30.95
2018-05-27T07:57:39.140Z,31.05
2018-05-27T07:58:39.714Z,31.01
2018-05-27T07:59:40.285Z,31.30
2018-05-27T08:00:40.858Z,31.57
2018-05-27T08:01:41.425Z,31.79
2018-05-27T08:02:41.997Z,31.93
2018-05-27T08:03:42.576Z,31.97
2018-05-27T08:04:43.137Z,31.84
2018-05-27T08:05:43.717Z,31.69
2018-05-27T08:06:44.289Z,31.76
2018-05-27T08:07:44.860Z,31.87
2018-05-27T08:08:45.438Z,31.82
2018-05-27T08:09:46.120Z,31.57
2018-05-27T08:10:46.693Z,31.49
2018-05-27T08:11:47.261Z,31.13
2018-05-27T08:12:47.831Z,30.62
2018-05-27T08:13:48.394Z,30.40
2018-05-27T08:14:48.978Z,30.28
2018-05-27T08:15:49.548Z,30.01
2018-05-27T08:16:50.118Z,29.69
2018-05-27T08:17:50.695Z,29.38
2018-05-27T08:18:51.263Z,29.32
2018-05-27T08:19:51.885Z,29.50
2018-05-27T08:20:52.407Z,29.74
2018-05-27T08:21:52.976Z,30.06
2018-05-27T08:22:53.544Z,30.28
2018-05-27T08:23:54.115Z,30.37
2018-05-27T08:24:54.685Z,30.11
2018-05-27T08:25:55.258Z,30.18
2018-05-27T08:26:55.846Z,30.16
2018-05-27T08:27:56.403Z,30.40
2018-05-27T08:28:56.977Z,30.40
2018-05-27T08:29:57.545Z,30.38
2018-05-27T08:30:58.121Z,30.68
2018-05-27T08:31:58.694Z,30.97
2018-05-27T08:32:59.264Z,31.03
2018-05-27T08:33:59.831Z,31.02
2018-05-27T08:35:00.418Z,30.97
2018-05-27T08:36:01.021Z,30.72
2018-05-27T08:37:01.553Z,30.84
2018-05-27T08:38:02.128Z,31.27
2018-05-27T08:39:02.699Z,31.45
2018-05-27T08:40:03.277Z,31.88
2018-05-27T08:41:03.838Z,32.06
2018-05-27T08:42:04.413Z,32.29
2018-05-27T08:43:04.996Z,32.44
2018-05-27T08:44:05.566Z,32.34
2018-05-27T08:45:06.133Z,32.05
2018-05-27T08:46:06.710Z,32.00
2018-05-27T08:47:07.292Z,32.10
2018-05-27T08:48:07.860Z,31.99
2018-05-27T08:49:08.433Z,31.95
2018-05-27T08:50:09.004Z,31.93
2018-05-27T08:51:09.577Z,32.00
2018-05-27T08:52:10.151Z,31.69
2018-05-27T08:53:10.727Z,31.62
2018-05-27T08:54:11.305Z,31.39
2018-05-27T08:55:11.894Z,31.49
2018-05-27T08:56:12.449Z,31.43
2018-05-27T08:57:13.033Z,31.57
2018-05-27T08:58:13.591Z,31.64
2018-05-27T08:59:14.167Z,31.62
2018-05-27T09:00:14.741Z,31.58
2018-05-27T09:01:15.393Z,31.58
2018-05-27T09:02:15.882Z,31.71
2018-05-27T09:03:16.458Z,31.49
2018-05-27T09:04:17.029Z,31.54
2018-05-27T09:05:17.603Z,31.40
2018-05-27T09:06:18.182Z,31.27
2018-05-27T09:07:18.748Z,31.40
2018-05-27T09:08:19.321Z,31.31
2018-05-27T09:09:19.888Z,31.34
2018-05-27T09:10:20.455Z,31.80
2018-05-27T09:11:21.020Z,31.99
2018-05-27T09:12:21.593Z,32.06
2018-05-27T09:13:22.162Z,32.19
2018-05-27T09:14:22.737Z,32.32
2018-05-27T09:15:23.349Z,32.48
2018-05-27T09:16:23.872Z,32.22
2018-05-27T09:17:24.451Z,32.37
2018-05-27T09:18:25.018Z,32.49
2018-05-27T09:19:25.804Z,32.85
2018-05-27T09:20:26.374Z,32.77
2018-05-27T09:21:26.948Z,31.93
2018-05-27T09:22:27.520Z,31.84
2018-05-27T09:23:28.093Z,31.95
2018-05-27T09:24:28.659Z,31.96
2018-05-27T09:25:29.235Z,31.43
2018-05-27T09:26:29.812Z,31.34
2018-05-27T09:27:30.377Z,31.36
2018-05-27T09:28:30.949Z,31.28
2018-05-27T09:29:31.519Z,31.54
2018-05-27T09:30:32.093Z,31.74
2018-05-27T09:31:32.667Z,31.71
2018-05-27T09:32:33.236Z,31.57
2018-05-27T09:33:33.806Z,31.39
2018-05-27T09:34:34.368Z,31.24
2018-05-27T09:35:34.940Z,31.27
2018-05-27T09:36:35.513Z,31.01
2018-05-27T09:37:36.087Z,30.69
2018-05-27T09:38:36.660Z,30.88
2018-05-27T09:39:37.227Z,31.13
2018-05-27T09:40:37.800Z,31.01
2018-05-27T09:41:38.368Z,31.06
2018-05-27T09:42:38.940Z,31.09
2018-05-27T09:43:39.505Z,30.93
2018-05-27T09:44:40.079Z,30.88
2018-05-27T09:45:40.649Z,31.12
2018-05-27T09:46:41.216Z,31.21
2018-05-27T09:47:41.793Z,31.25
2018-05-27T09:48:42.362Z,31.45
2018-05-27T09:49:42.937Z,31.87
2018-05-27T09:50:43.505Z,32.00
2018-05-27T09:51:44.080Z,32.03
2018-05-27T09:52:44.644Z,31.99
2018-05-27T09:53:45.212Z,31.84
2018-05-27T09:54:45.790Z,31.84
2018-05-27T09:55:46.365Z,31.88
2018-05-27T09:56:46.935Z,32.07
2018-05-27T09:57:47.556Z,32.14
2018-05-27T09:58:48.080Z,32.22
2018-05-27T09:59:48.651Z,32.49
2018-05-27T10:00:49.229Z,32.61
2018-05-27T10:01:49.801Z,32.44
2018-05-27T10:02:50.376Z,32.47
2018-05-27T10:03:50.949Z,32.54
2018-05-27T10:04:51.520Z,32.66
2018-05-27T10:05:52.094Z,32.92
2018-05-27T10:06:52.665Z,32.85
2018-05-27T10:07:53.241Z,32.55
2018-05-27T10:08:53.808Z,32.02
2018-05-27T10:09:54.380Z,32.10
2018-05-27T10:10:54.952Z,32.07
2018-05-27T10:11:55.532Z,32.11
2018-05-27T10:12:56.102Z,32.12
2018-05-27T10:13:56.674Z,32.18
2018-05-27T10:14:57.242Z,32.10
2018-05-27T10:15:57.815Z,32.15
2018-05-27T10:16:58.397Z,32.32
2018-05-27T10:17:58.969Z,32.48
2018-05-27T10:18:59.566Z,32.15
2018-05-27T10:20:00.113Z,31.96
2018-05-27T10:21:00.681Z,31.85
2018-05-27T10:22:01.257Z,31.76
2018-05-27T10:23:01.824Z,31.46
2018-05-27T10:24:02.413Z,31.23
2018-05-27T10:25:02.973Z,30.90
2018-05-27T10:26:03.599Z,30.72
2018-05-27T10:27:04.103Z,30.44
2018-05-27T10:28:04.670Z,30.40
2018-05-27T10:29:05.447Z,30.27
2018-05-27T10:30:06.027Z,30.24
2018-05-27T10:31:06.594Z,30.16
2018-05-27T10:32:07.160Z,30.22
2018-05-27T10:33:07.730Z,30.15
2018-05-27T10:34:08.299Z,29.99
2018-05-27T10:35:08.868Z,29.66
2018-05-27T10:36:09.434Z,29.54
2018-05-27T10:37:10.003Z,29.41
2018-05-27T10:38:10.574Z,29.38
2018-05-27T10:39:11.191Z,29.38
2018-05-27T10:40:11.707Z,29.22
2018-05-27T10:41:12.273Z,29.00
2018-05-27T10:42:12.841Z,28.79
2018-05-27T10:43:13.408Z,28.66
2018-05-27T10:44:13.980Z,28.57
2018-05-27T10:45:14.543Z,28.44
2018-05-27T10:46:15.114Z,28.32
2018-05-27T10:47:15.691Z,28.22
2018-05-27T10:48:16.255Z,28.20
2018-05-27T10:49:16.821Z,28.20
2018-05-27T10:50:17.389Z,28.18
2018-05-27T10:51:17.952Z,28.17
2018-05-27T10:52:18.518Z,28.17
2018-05-27T10:53:19.082Z,28.11
2018-05-27T10:54:19.644Z,28.13
2018-05-27T10:55:20.207Z,27.96
2018-05-27T10:56:20.773Z,27.95
2018-05-27T10:57:21.335Z,27.98
2018-05-27T10:58:21.899Z,27.99
2018-05-27T10:59:22.462Z,27.95
2018-05-27T11:00:23.027Z,27.98
2018-05-27T11:01:23.589Z,27.96
2018-05-27T11:02:24.152Z,27.99
2018-05-27T11:03:24.717Z,28.00
2018-05-27T11:04:25.284Z,28.10
2018-05-27T11:05:25.840Z,28.08
2018-05-27T11:06:26.405Z,28.07
2018-05-27T11:07:26.965Z,28.13
2018-05-27T11:08:27.527Z,28.13
2018-05-27T11:09:28.090Z,28.13
2018-05-27T11:10:28.665Z,28.17
2018-05-27T11:11:29.222Z,28.15
2018-05-27T11:12:29.793Z,28.07
2018-05-27T11:13:30.362Z,27.99
2018-05-27T11:14:30.925Z,27.98
2018-05-27T11:15:31.482Z,27.95
2018-05-27T11:16:32.044Z,27.86
2018-05-27T11:17:32.719Z,27.83
2018-05-27T11:18:33.285Z,27.78
2018-05-27T11:19:33.846Z,27.76
2018-05-27T11:20:34.420Z,27.66
2018-05-27T11:21:35.005Z,27.61
2018-05-27T11:22:35.552Z,27.50
2018-05-27T11:23:36.119Z,27.55
2018-05-27T11:24:36.682Z,27.37
2018-05-27T11:25:37.248Z,27.18
2018-05-27T11:26:37.812Z,27.10
2018-05-27T11:27:38.379Z,27.02
2018-05-27T11:28:38.949Z,27.08
2018-05-27T11:29:39.512Z,27.00
2018-05-27T11:30:40.076Z,27.02
2018-05-27T11:31:40.635Z,26.84
2018-05-27T11:32:41.199Z,26.69
2018-05-27T11:33:41.761Z,26.55
2018-05-27T11:34:42.329Z,26.51
2018-05-27T11:35:42.892Z,26.55
2018-05-27T11:36:43.448Z,26.47
2018-05-27T11:37:44.011Z,26.41
2018-05-27T11:38:44.564Z,26.31
2018-05-27T11:39:45.127Z,26.34
2018-05-27T11:40:45.699Z,26.22
2018-05-27T11:41:46.257Z,25.98
2018-05-27T11:42:46.823Z,25.94
2018-05-27T11:43:47.384Z,25.88
2018-05-27T11:44:47.950Z,25.75
2018-05-27T11:45:48.513Z,25.73
2018-05-27T11:46:49.075Z,25.71
2018-05-27T11:47:49.636Z,25.62
2018-05-27T11:48:50.197Z,25.53
2018-05-27T11:49:50.760Z,25.33
2018-05-27T11:50:51.320Z,25.10
2018-05-27T11:51:51.888Z,25.01
2018-05-27T11:52:52.444Z,24.96
2018-05-27T11:53:53.009Z,24.96
2018-05-27T11:54:53.568Z,24.98
2018-05-27T11:55:54.135Z,24.94
2018-05-27T11:56:54.696Z,25.01
2018-05-27T11:57:55.253Z,25.06
2018-05-27T11:58:55.811Z,24.94
2018-05-27T11:59:56.371Z,24.80
2018-05-27T12:00:56.928Z,24.91
2018-05-27T12:01:57.496Z,24.94
2018-05-27T12:02:58.059Z,24.91
2018-05-27T12:03:58.619Z,24.77
2018-05-27T12:04:59.179Z,24.80
2018-05-27T12:05:59.735Z,24.79
2018-05-27T12:07:00.296Z,24.69
2018-05-27T12:08:00.857Z,24.56
2018-05-27T12:09:01.458Z,24.58
2018-05-27T12:10:01.981Z,24.63
2018-05-27T12:11:02.540Z,24.57
2018-05-27T12:12:03.106Z,24.60
2018-05-27T12:13:03.661Z,24.57
2018-05-27T12:14:04.227Z,24.45
2018-05-27T12:15:04.785Z,24.41
2018-05-27T12:16:05.357Z,24.41
2018-05-27T12:17:05.910Z,24.31
2018-05-27T12:18:06.463Z,24.14
2018-05-27T12:19:07.043Z,24.16
2018-05-27T12:20:07.600Z,24.16
2018-05-27T12:21:08.161Z,24.13
2018-05-27T12:22:08.725Z,24.02
2018-05-27T12:23:09.286Z,23.94
2018-05-27T12:24:09.871Z,23.81
2018-05-27T12:25:10.413Z,23.65
2018-05-27T12:26:10.978Z,23.51
2018-05-27T12:27:11.536Z,23.49
2018-05-27T12:28:12.096Z,23.39
2018-05-27T12:29:12.660Z,23.40
2018-05-27T12:30:13.220Z,23.50
2018-05-27T12:31:13.773Z,23.47
2018-05-27T12:32:14.333Z,23.41
2018-05-27T12:33:14.893Z,23.35
2018-05-27T12:34:15.457Z,23.27
2018-05-27T12:35:16.016Z,23.21
2018-05-27T12:36:16.576Z,23.25
2018-05-27T12:37:17.134Z,23.05
2018-05-27T12:38:17.694Z,23.05
2018-05-27T12:39:18.255Z,23.06
2018-05-27T12:40:18.815Z,22.95
2018-05-27T12:41:19.370Z,22.84
2018-05-27T12:42:19.925Z,22.63
2018-05-27T12:43:20.484Z,22.53
2018-05-27T12:44:21.047Z,22.36
2018-05-27T12:45:21.603Z,22.35
2018-05-27T12:46:22.165Z,22.44
2018-05-27T12:47:22.719Z,22.44
2018-05-27T12:48:23.277Z,22.48
2018-05-27T12:49:23.837Z,22.40
2018-05-27T12:50:24.396Z,22.40
2018-05-27T12:51:24.952Z,22.32
2018-05-27T12:52:25.511Z,22.44
2018-05-27T12:53:26.070Z,22.54
2018-05-27T12:54:26.632Z,22.63
2018-05-27T12:55:27.189Z,22.65
2018-05-27T12:56:27.751Z,22.63
2018-05-27T12:57:28.313Z,22.70
2018-05-27T12:58:28.876Z,22.76
2018-05-27T12:59:29.440Z,22.84
2018-05-27T13:00:29.995Z,23.00